sensor_id;sensor_type;location;lat;lon;timestamp;pressure;altitude;pressure_sealevel;temperature
67966;BMP280;54749;47.850;9.002;2024-03-08T00:00:12;95652.59;;;1.82
67966;BMP280;54749;47.850;9.002;2024-03-08T00:03:02;95661.19;;;1.76
67966;BMP280;54749;47.850;9.002;2024-03-08T00:05:30;95654.66;;;1.74
67966;BMP280;54749;47.850;9.002;2024-03-08T00:07:57;95654.59;;;1.75
67966;BMP280;54749;47.850;9.002;2024-03-08T00:10:24;95653.13;;;1.72
67966;BMP280;54749;47.850;9.002;2024-03-08T00:12:54;95654.16;;;1.68
67966;BMP280;54749;47.850;9.002;2024-03-08T00:15:21;95646.53;;;1.71
67966;BMP280;54749;47.850;9.002;2024-03-08T00:17:50;95650.78;;;1.69
67966;BMP280;54749;47.850;9.002;2024-03-08T00:20:17;95650.91;;;1.66
67966;BMP280;54749;47.850;9.002;2024-03-08T00:22:46;95649.16;;;1.68
67966;BMP280;54749;47.850;9.002;2024-03-08T00:25:13;95652.69;;;1.64
67966;BMP280;54749;47.850;9.002;2024-03-08T00:27:41;95648.72;;;1.60
67966;BMP280;54749;47.850;9.002;2024-03-08T00:30:08;95649.88;;;1.53
67966;BMP280;54749;47.850;9.002;2024-03-08T00:32:36;95644.28;;;1.48
67966;BMP280;54749;47.850;9.002;2024-03-08T00:35:04;95645.91;;;1.49
67966;BMP280;54749;47.850;9.002;2024-03-08T00:37:34;95641.94;;;1.45
67966;BMP280;54749;47.850;9.002;2024-03-08T00:40:02;95634.63;;;1.42
67966;BMP280;54749;47.850;9.002;2024-03-08T00:42:29;95639.00;;;1.38
67966;BMP280;54749;47.850;9.002;2024-03-08T00:44:56;95630.88;;;1.34
67966;BMP280;54749;47.850;9.002;2024-03-08T00:47:25;95633.38;;;1.34
67966;BMP280;54749;47.850;9.002;2024-03-08T00:49:54;95633.28;;;1.36
67966;BMP280;54749;47.850;9.002;2024-03-08T00:52:24;95624.50;;;1.29
67966;BMP280;54749;47.850;9.002;2024-03-08T00:54:51;95627.84;;;1.28
67966;BMP280;54749;47.850;9.002;2024-03-08T00:57:19;95630.50;;;1.25
67966;BMP280;54749;47.850;9.002;2024-03-08T00:59:46;95628.94;;;1.22
67966;BMP280;54749;47.850;9.002;2024-03-08T01:02:14;95630.00;;;1.17
67966;BMP280;54749;47.850;9.002;2024-03-08T01:04:41;95629.88;;;1.20
67966;BMP280;54749;47.850;9.002;2024-03-08T01:07:08;95623.28;;;1.19
67966;BMP280;54749;47.850;9.002;2024-03-08T01:09:35;95621.81;;;1.15
67966;BMP280;54749;47.850;9.002;2024-03-08T01:12:03;95621.66;;;1.18
67966;BMP280;54749;47.850;9.002;2024-03-08T01:14:30;95620.19;;;1.14
67966;BMP280;54749;47.850;9.002;2024-03-08T01:16:58;95617.00;;;1.12
67966;BMP280;54749;47.850;9.002;2024-03-08T01:19:26;95610.25;;;1.14
67966;BMP280;54749;47.850;9.002;2024-03-08T01:21:53;95617.91;;;1.10
67966;BMP280;54749;47.850;9.002;2024-03-08T01:24:23;95604.75;;;1.08
67966;BMP280;54749;47.850;9.002;2024-03-08T01:26:50;95610.72;;;1.04
67966;BMP280;54749;47.850;9.002;2024-03-08T01:29:17;95599.28;;;1.00
67966;BMP280;54749;47.850;9.002;2024-03-08T01:31:44;95601.88;;;0.99
67966;BMP280;54749;47.850;9.002;2024-03-08T01:34:11;95601.97;;;0.96
67966;BMP280;54749;47.850;9.002;2024-03-08T01:36:38;95596.94;;;0.97
67966;BMP280;54749;47.850;9.002;2024-03-08T01:39:06;95592.78;;;0.98
67966;BMP280;54749;47.850;9.002;2024-03-08T01:41:35;95587.97;;;0.95
67966;BMP280;54749;47.850;9.002;2024-03-08T01:44:03;95589.63;;;0.94
67966;BMP280;54749;47.850;9.002;2024-03-08T01:46:31;95587.34;;;0.90
67966;BMP280;54749;47.850;9.002;2024-03-08T01:48:59;95588.06;;;0.92
67966;BMP280;54749;47.850;9.002;2024-03-08T01:51:29;95590.78;;;0.87
67966;BMP280;54749;47.850;9.002;2024-03-08T01:54:01;95589.75;;;0.91
67966;BMP280;54749;47.850;9.002;2024-03-08T01:56:29;95576.44;;;0.92
67966;BMP280;54749;47.850;9.002;2024-03-08T01:58:59;95569.00;;;0.92
67966;BMP280;54749;47.850;9.002;2024-03-08T02:01:27;95573.16;;;0.92
67966;BMP280;54749;47.850;9.002;2024-03-08T02:03:54;95562.50;;;0.90
67966;BMP280;54749;47.850;9.002;2024-03-08T02:06:21;95559.41;;;0.85
67966;BMP280;54749;47.850;9.002;2024-03-08T02:08:49;95557.94;;;0.81
67966;BMP280;54749;47.850;9.002;2024-03-08T02:11:16;95550.72;;;0.75
67966;BMP280;54749;47.850;9.002;2024-03-08T02:13:44;95556.66;;;0.73
67966;BMP280;54749;47.850;9.002;2024-03-08T02:16:11;95555.97;;;0.69
67966;BMP280;54749;47.850;9.002;2024-03-08T02:18:39;95560.06;;;0.70
67966;BMP280;54749;47.850;9.002;2024-03-08T02:21:07;95545.16;;;0.70
67966;BMP280;54749;47.850;9.002;2024-03-08T02:23:36;95554.28;;;0.70
67966;BMP280;54749;47.850;9.002;2024-03-08T02:26:04;95552.50;;;0.73
67966;BMP280;54749;47.850;9.002;2024-03-08T02:28:32;95550.72;;;0.75
67966;BMP280;54749;47.850;9.002;2024-03-08T02:31:00;95543.59;;;0.86
67966;BMP280;54749;47.850;9.002;2024-03-08T02:33:27;95547.34;;;0.94
67966;BMP280;54749;47.850;9.002;2024-03-08T02:35:55;95549.63;;;0.99
67966;BMP280;54749;47.850;9.002;2024-03-08T02:38:24;95549.34;;;1.04
67966;BMP280;54749;47.850;9.002;2024-03-08T02:40:53;95548.84;;;1.15
67966;BMP280;54749;47.850;9.002;2024-03-08T02:43:22;95545.13;;;1.23
67966;BMP280;54749;47.850;9.002;2024-03-08T02:45:50;95547.25;;;1.30
67966;BMP280;54749;47.850;9.002;2024-03-08T02:48:18;95551.91;;;1.38
67966;BMP280;54749;47.850;9.002;2024-03-08T02:50:45;95544.13;;;1.43
67966;BMP280;54749;47.850;9.002;2024-03-08T02:53:13;95551.31;;;1.49
67966;BMP280;54749;47.850;9.002;2024-03-08T02:55:41;95541.94;;;1.54
67966;BMP280;54749;47.850;9.002;2024-03-08T02:58:09;95539.25;;;1.58
67966;BMP280;54749;47.850;9.002;2024-03-08T03:00:38;95535.94;;;1.58
67966;BMP280;54749;47.850;9.002;2024-03-08T03:03:08;95533.16;;;1.64
67966;BMP280;54749;47.850;9.002;2024-03-08T03:05:35;95523.84;;;1.67
67966;BMP280;54749;47.850;9.002;2024-03-08T03:08:03;95512.81;;;1.73
67966;BMP280;54749;47.850;9.002;2024-03-08T03:10:36;95511.84;;;1.75
67966;BMP280;54749;47.850;9.002;2024-03-08T03:13:04;95512.47;;;1.78
67966;BMP280;54749;47.850;9.002;2024-03-08T03:15:32;95498.50;;;1.76
67966;BMP280;54749;47.850;9.002;2024-03-08T03:18:01;95498.34;;;1.79
67966;BMP280;54749;47.850;9.002;2024-03-08T03:20:29;95505.59;;;1.83
67966;BMP280;54749;47.850;9.002;2024-03-08T03:23:09;95497.97;;;1.86
67966;BMP280;54749;47.850;9.002;2024-03-08T03:25:36;95501.03;;;1.91
67966;BMP280;54749;47.850;9.002;2024-03-08T03:28:06;95495.00;;;1.95
67966;BMP280;54749;47.850;9.002;2024-03-08T03:30:34;95504.69;;;2.01
67966;BMP280;54749;47.850;9.002;2024-03-08T03:33:03;95492.97;;;2.03
67966;BMP280;54749;47.850;9.002;2024-03-08T03:35:35;95485.41;;;2.04
67966;BMP280;54749;47.850;9.002;2024-03-08T03:38:04;95493.59;;;2.06
67966;BMP280;54749;47.850;9.002;2024-03-08T03:40:38;95486.06;;;2.08
67966;BMP280;54749;47.850;9.002;2024-03-08T03:43:07;95488.31;;;2.12
67966;BMP280;54749;47.850;9.002;2024-03-08T03:45:37;95489.09;;;2.12
67966;BMP280;54749;47.850;9.002;2024-03-08T03:48:07;95490.06;;;2.10
67966;BMP280;54749;47.850;9.002;2024-03-08T03:50:37;95482.66;;;2.09
67966;BMP280;54749;47.850;9.002;2024-03-08T03:53:06;95473.44;;;2.10
67966;BMP280;54749;47.850;9.002;2024-03-08T03:55:37;95473.50;;;2.09
67966;BMP280;54749;47.850;9.002;2024-03-08T03:58:08;95473.44;;;2.10
67966;BMP280;54749;47.850;9.002;2024-03-08T04:00:38;95472.56;;;2.11
67966;BMP280;54749;47.850;9.002;2024-03-08T04:03:05;95475.94;;;2.10
67966;BMP280;54749;47.850;9.002;2024-03-08T04:05:33;95486.59;;;2.12
67966;BMP280;54749;47.850;9.002;2024-03-08T04:08:00;95472.63;;;2.10
67966;BMP280;54749;47.850;9.002;2024-03-08T04:10:28;95471.91;;;2.08
67966;BMP280;54749;47.850;9.002;2024-03-08T04:12:55;95462.72;;;2.09
67966;BMP280;54749;47.850;9.002;2024-03-08T04:15:23;95482.66;;;2.09
67966;BMP280;54749;47.850;9.002;2024-03-08T04:17:51;95482.25;;;2.01
67966;BMP280;54749;47.850;9.002;2024-03-08T04:20:18;95469.81;;;2.01
67966;BMP280;54749;47.850;9.002;2024-03-08T04:22:45;95467.53;;;1.96
67966;BMP280;54749;47.850;9.002;2024-03-08T04:25:16;95469.31;;;1.94
67966;BMP280;54749;47.850;9.002;2024-03-08T04:27:44;95470.03;;;1.96
67966;BMP280;54749;47.850;9.002;2024-03-08T04:30:11;95467.72;;;1.93
67966;BMP280;54749;47.850;9.002;2024-03-08T04:32:40;95466.91;;;1.93
67966;BMP280;54749;47.850;9.002;2024-03-08T04:35:08;95464.41;;;1.93
67966;BMP280;54749;47.850;9.002;2024-03-08T04:37:35;95456.94;;;1.93
67966;BMP280;54749;47.850;9.002;2024-03-08T04:40:03;95462.94;;;1.89
67966;BMP280;54749;47.850;9.002;2024-03-08T04:42:31;95465.44;;;1.89
67966;BMP280;54749;47.850;9.002;2024-03-08T04:45:00;95460.47;;;1.89
67966;BMP280;54749;47.850;9.002;2024-03-08T04:47:28;95461.34;;;1.88
67966;BMP280;54749;47.850;9.002;2024-03-08T04:49:55;95455.53;;;1.88
67966;BMP280;54749;47.850;9.002;2024-03-08T04:52:23;95456.59;;;1.84
67966;BMP280;54749;47.850;9.002;2024-03-08T04:54:50;95452.41;;;1.84
67966;BMP280;54749;47.850;9.002;2024-03-08T04:57:18;95453.34;;;1.82
67966;BMP280;54749;47.850;9.002;2024-03-08T04:59:46;95456.88;;;1.78
67966;BMP280;54749;47.850;9.002;2024-03-08T05:02:14;95453.44;;;2.12
67966;BMP280;54749;47.850;9.002;2024-03-08T05:04:41;95455.13;;;2.11
67966;BMP280;54749;47.850;9.002;2024-03-08T05:07:10;95460.97;;;2.10
67966;BMP280;54749;47.850;9.002;2024-03-08T05:09:37;95454.56;;;2.07
67966;BMP280;54749;47.850;9.002;2024-03-08T05:12:05;95449.63;;;2.05
67966;BMP280;54749;47.850;9.002;2024-03-08T05:14:33;95451.25;;;2.06
67966;BMP280;54749;47.850;9.002;2024-03-08T05:17:02;95449.94;;;1.99
67966;BMP280;54749;47.850;9.002;2024-03-08T05:19:29;95447.63;;;1.96
67966;BMP280;54749;47.850;9.002;2024-03-08T05:22:01;95446.97;;;1.93
67966;BMP280;54749;47.850;9.002;2024-03-08T05:24:28;95441.19;;;1.92
67966;BMP280;54749;47.850;9.002;2024-03-08T05:26:57;95438.91;;;1.88
67966;BMP280;54749;47.850;9.002;2024-03-08T05:29:26;95434.09;;;1.85
67966;BMP280;54749;47.850;9.002;2024-03-08T05:31:54;95443.16;;;1.86
67966;BMP280;54749;47.850;9.002;2024-03-08T05:34:21;95438.91;;;1.88
67966;BMP280;54749;47.850;9.002;2024-03-08T05:36:49;95435.69;;;1.86
67966;BMP280;54749;47.850;9.002;2024-03-08T05:39:18;95444.19;;;1.82
67966;BMP280;54749;47.850;9.002;2024-03-08T05:41:47;95445.66;;;1.86
67966;BMP280;54749;47.850;9.002;2024-03-08T05:44:14;95431.50;;;1.87
67966;BMP280;54749;47.850;9.002;2024-03-08T05:46:44;95431.44;;;1.88
67966;BMP280;54749;47.850;9.002;2024-03-08T05:49:14;95428.09;;;1.89
67966;BMP280;54749;47.850;9.002;2024-03-08T05:51:42;95429.69;;;1.90
67966;BMP280;54749;47.850;9.002;2024-03-08T05:54:11;95427.50;;;1.84
67966;BMP280;54749;47.850;9.002;2024-03-08T05:56:42;95430.00;;;1.84
67966;BMP280;54749;47.850;9.002;2024-03-08T05:59:11;95427.34;;;1.87
67966;BMP280;54749;47.850;9.002;2024-03-08T06:01:39;95426.53;;;1.87
67966;BMP280;54749;47.850;9.002;2024-03-08T06:04:09;95432.97;;;1.91
67966;BMP280;54749;47.850;9.002;2024-03-08T06:06:39;95423.69;;;1.94
67966;BMP280;54749;47.850;9.002;2024-03-08T06:09:07;95430.97;;;1.97
67966;BMP280;54749;47.850;9.002;2024-03-08T06:11:44;95432.59;;;1.98
67966;BMP280;54749;47.850;9.002;2024-03-08T06:14:12;95430.75;;;2.01
67966;BMP280;54749;47.850;9.002;2024-03-08T06:16:39;95429.63;;;2.07
67966;BMP280;54749;47.850;9.002;2024-03-08T06:19:06;95434.44;;;2.09
67966;BMP280;54749;47.850;9.002;2024-03-08T06:21:35;95431.09;;;2.10
67966;BMP280;54749;47.850;9.002;2024-03-08T06:24:02;95435.91;;;2.13
67966;BMP280;54749;47.850;9.002;2024-03-08T06:26:29;95432.53;;;2.14
67966;BMP280;54749;47.850;9.002;2024-03-08T06:28:58;95430.91;;;2.13
67966;BMP280;54749;47.850;9.002;2024-03-08T06:31:25;95434.03;;;2.17
67966;BMP280;54749;47.850;9.002;2024-03-08T06:33:53;95435.66;;;2.18
67966;BMP280;54749;47.850;9.002;2024-03-08T06:36:23;95433.81;;;2.21
67966;BMP280;54749;47.850;9.002;2024-03-08T06:38:51;95427.25;;;2.20
67966;BMP280;54749;47.850;9.002;2024-03-08T06:41:19;95431.06;;;2.26
67966;BMP280;54749;47.850;9.002;2024-03-08T06:43:47;95428.59;;;2.26
67966;BMP280;54749;47.850;9.002;2024-03-08T06:46:16;95438.31;;;2.30
67966;BMP280;54749;47.850;9.002;2024-03-08T06:48:43;95436.72;;;2.29
67966;BMP280;54749;47.850;9.002;2024-03-08T06:51:11;95431.75;;;2.29
67966;BMP280;54749;47.850;9.002;2024-03-08T06:53:38;95432.44;;;2.31
67966;BMP280;54749;47.850;9.002;2024-03-08T06:56:06;95433.19;;;2.33
67966;BMP280;54749;47.850;9.002;2024-03-08T06:58:35;95429.78;;;2.34
67966;BMP280;54749;47.850;9.002;2024-03-08T07:01:03;95432.84;;;2.39
67966;BMP280;54749;47.850;9.002;2024-03-08T07:03:35;95423.06;;;2.36
67966;BMP280;54749;47.850;9.002;2024-03-08T07:06:02;95421.59;;;2.32
67966;BMP280;54749;47.850;9.002;2024-03-08T07:08:30;95429.00;;;2.33
67966;BMP280;54749;47.850;9.002;2024-03-08T07:10:58;95425.53;;;2.36
67966;BMP280;54749;47.850;9.002;2024-03-08T07:13:26;95427.00;;;2.40
67966;BMP280;54749;47.850;9.002;2024-03-08T07:15:56;95423.44;;;2.44
67966;BMP280;54749;47.850;9.002;2024-03-08T07:18:23;95416.78;;;2.44
67966;BMP280;54749;47.850;9.002;2024-03-08T07:20:51;95420.88;;;2.45
67966;BMP280;54749;47.850;9.002;2024-03-08T07:23:18;95416.47;;;2.50
67966;BMP280;54749;47.850;9.002;2024-03-08T07:26:04;95421.91;;;2.56
67966;BMP280;54749;47.850;9.002;2024-03-08T07:28:31;95420.16;;;2.58
67966;BMP280;54749;47.850;9.002;2024-03-08T07:30:59;95420.16;;;2.58
67966;BMP280;54749;47.850;9.002;2024-03-08T07:33:39;95422.09;;;2.53
67966;BMP280;54749;47.850;9.002;2024-03-08T07:36:07;95429.50;;;2.55
67966;BMP280;54749;47.850;9.002;2024-03-08T07:38:36;95421.75;;;2.59
67966;BMP280;54749;47.850;9.002;2024-03-08T07:41:03;95416.44;;;2.65
67966;BMP280;54749;47.850;9.002;2024-03-08T07:43:31;95416.56;;;2.77
67966;BMP280;54749;47.850;9.002;2024-03-08T07:46:00;95414.50;;;2.70
67966;BMP280;54749;47.850;9.002;2024-03-08T07:48:27;95409.50;;;2.70
67966;BMP280;54749;47.850;9.002;2024-03-08T07:50:55;95403.22;;;2.78
67966;BMP280;54749;47.850;9.002;2024-03-08T07:53:22;95409.31;;;2.88
67966;BMP280;54749;47.850;9.002;2024-03-08T07:55:52;95401.91;;;2.86
67966;BMP280;54749;47.850;9.002;2024-03-08T07:58:19;95403.69;;;2.84
67966;BMP280;54749;47.850;9.002;2024-03-08T08:00:46;95410.38;;;2.84
67966;BMP280;54749;47.850;9.002;2024-03-08T08:03:13;95400.31;;;2.85
67966;BMP280;54749;47.850;9.002;2024-03-08T08:05:41;95396.41;;;2.95
67966;BMP280;54749;47.850;9.002;2024-03-08T08:08:08;95405.00;;;3.05
67966;BMP280;54749;47.850;9.002;2024-03-08T08:10:38;95403.06;;;3.10
67966;BMP280;54749;47.850;9.002;2024-03-08T08:13:05;95394.59;;;3.12
67966;BMP280;54749;47.850;9.002;2024-03-08T08:15:33;95398.81;;;3.12
67966;BMP280;54749;47.850;9.002;2024-03-08T08:18:03;95400.75;;;3.07
67966;BMP280;54749;47.850;9.002;2024-03-08T08:20:34;95397.50;;;3.05
67966;BMP280;54749;47.850;9.002;2024-03-08T08:23:01;95398.25;;;3.07
67966;BMP280;54749;47.850;9.002;2024-03-08T08:25:28;95390.59;;;3.10
67966;BMP280;54749;47.850;9.002;2024-03-08T08:27:56;95395.25;;;3.15
67966;BMP280;54749;47.850;9.002;2024-03-08T08:30:23;95386.06;;;3.16
67966;BMP280;54749;47.850;9.002;2024-03-08T08:32:50;95384.91;;;3.21
67966;BMP280;54749;47.850;9.002;2024-03-08T08:35:17;95392.75;;;3.29
67966;BMP280;54749;47.850;9.002;2024-03-08T08:37:46;95396.50;;;3.22
67966;BMP280;54749;47.850;9.002;2024-03-08T08:40:14;95399.88;;;3.21
67966;BMP280;54749;47.850;9.002;2024-03-08T08:42:42;95384.72;;;3.11
67966;BMP280;54749;47.850;9.002;2024-03-08T08:45:10;95393.25;;;3.20
67966;BMP280;54749;47.850;9.002;2024-03-08T08:47:44;95400.41;;;3.26
67966;BMP280;54749;47.850;9.002;2024-03-08T08:50:13;95394.22;;;3.33
67966;BMP280;54749;47.850;9.002;2024-03-08T08:52:40;95388.16;;;3.37
67966;BMP280;54749;47.850;9.002;2024-03-08T08:55:08;95381.47;;;3.37
67966;BMP280;54749;47.850;9.002;2024-03-08T08:57:35;95377.63;;;3.46
67966;BMP280;54749;47.850;9.002;2024-03-08T09:00:03;95376.66;;;3.62
67966;BMP280;54749;47.850;9.002;2024-03-08T09:02:34;95373.34;;;3.75
67966;BMP280;54749;47.850;9.002;2024-03-08T09:05:02;95369.59;;;3.82
67966;BMP280;54749;47.850;9.002;2024-03-08T09:07:30;95377.28;;;3.92
67966;BMP280;54749;47.850;9.002;2024-03-08T09:09:57;95380.38;;;4.09
67966;BMP280;54749;47.850;9.002;2024-03-08T09:12:26;95367.75;;;4.24
67966;BMP280;54749;47.850;9.002;2024-03-08T09:14:53;95364.53;;;4.36
67966;BMP280;54749;47.850;9.002;2024-03-08T09:17:21;95358.69;;;4.49
67966;BMP280;54749;47.850;9.002;2024-03-08T09:19:49;95354.28;;;4.53
67966;BMP280;54749;47.850;9.002;2024-03-08T09:22:17;95344.84;;;4.70
67966;BMP280;54749;47.850;9.002;2024-03-08T09:24:45;95350.06;;;4.79
67966;BMP280;54749;47.850;9.002;2024-03-08T09:27:12;95341.19;;;4.61
67966;BMP280;54749;47.850;9.002;2024-03-08T09:29:41;95346.84;;;4.77
67966;BMP280;54749;47.850;9.002;2024-03-08T09:32:07;95341.25;;;4.86
67966;BMP280;54749;47.850;9.002;2024-03-08T09:34:35;95355.00;;;4.92
67966;BMP280;54749;47.850;9.002;2024-03-08T09:37:04;95334.81;;;4.70
67966;BMP280;54749;47.850;9.002;2024-03-08T09:39:31;95346.09;;;4.89
67966;BMP280;54749;47.850;9.002;2024-03-08T09:42:01;95345.91;;;4.91
67966;BMP280;54749;47.850;9.002;2024-03-08T09:44:28;95345.69;;;4.94
67966;BMP280;54749;47.850;9.002;2024-03-08T09:46:56;95344.59;;;4.98
67966;BMP280;54749;47.850;9.002;2024-03-08T09:49:25;95344.50;;;5.00
67966;BMP280;54749;47.850;9.002;2024-03-08T09:51:52;95342.66;;;4.89
67966;BMP280;54749;47.850;9.002;2024-03-08T09:54:20;95334.75;;;4.71
67966;BMP280;54749;47.850;9.002;2024-03-08T09:56:52;95331.88;;;4.89
67966;BMP280;54749;47.850;9.002;2024-03-08T09:59:20;95319.19;;;5.04
67966;BMP280;54749;47.850;9.002;2024-03-08T10:02:13;95323.28;;;5.05
67966;BMP280;54749;47.850;9.002;2024-03-08T10:04:42;95328.06;;;4.84
67966;BMP280;54749;47.850;9.002;2024-03-08T10:07:10;95334.56;;;4.86
67966;BMP280;54749;47.850;9.002;2024-03-08T10:09:38;95324.03;;;4.81
67966;BMP280;54749;47.850;9.002;2024-03-08T10:12:05;95321.00;;;4.64
67966;BMP280;54749;47.850;9.002;2024-03-08T10:14:32;95311.78;;;4.65
67966;BMP280;54749;47.850;9.002;2024-03-08T10:16:59;95307.09;;;4.72
67966;BMP280;54749;47.850;9.002;2024-03-08T10:19:28;95311.63;;;4.80
67966;BMP280;54749;47.850;9.002;2024-03-08T10:21:58;95318.03;;;4.84
67966;BMP280;54749;47.850;9.002;2024-03-08T10:24:26;95307.03;;;4.98
67966;BMP280;54749;47.850;9.002;2024-03-08T10:26:58;95307.25;;;5.07
67966;BMP280;54749;47.850;9.002;2024-03-08T10:29:27;95303.44;;;5.02
67966;BMP280;54749;47.850;9.002;2024-03-08T10:31:55;95309.06;;;5.18
67966;BMP280;54749;47.850;9.002;2024-03-08T10:34:23;95298.97;;;5.19
67966;BMP280;54749;47.850;9.002;2024-03-08T10:36:51;95309.69;;;5.21
67966;BMP280;54749;47.850;9.002;2024-03-08T10:39:23;95304.97;;;5.05
67966;BMP280;54749;47.850;9.002;2024-03-08T10:41:58;95301.56;;;5.18
67966;BMP280;54749;47.850;9.002;2024-03-08T10:47:00;95303.19;;;5.19
67966;BMP280;54749;47.850;9.002;2024-03-08T10:50:30;95288.16;;;5.19
67966;BMP280;54749;47.850;9.002;2024-03-08T10:52:32;95289.03;;;5.30
67966;BMP280;54749;47.850;9.002;2024-03-08T10:55:01;95287.03;;;5.47
67966;BMP280;54749;47.850;9.002;2024-03-08T10:57:28;95282.22;;;5.68
67966;BMP280;54749;47.850;9.002;2024-03-08T10:59:56;95289.59;;;5.82
67966;BMP280;54749;47.850;9.002;2024-03-08T11:02:25;95285.88;;;5.63
67966;BMP280;54749;47.850;9.002;2024-03-08T11:04:55;95288.72;;;5.46
67966;BMP280;54749;47.850;9.002;2024-03-08T11:07:25;95280.22;;;5.49
67966;BMP280;54749;47.850;9.002;2024-03-08T11:09:55;95281.19;;;5.58
67966;BMP280;54749;47.850;9.002;2024-03-08T11:12:27;95282.59;;;5.50
67966;BMP280;54749;47.850;9.002;2024-03-08T11:15:02;95284.41;;;5.60
67966;BMP280;54749;47.850;9.002;2024-03-08T11:20:00;95286.50;;;5.78
67966;BMP280;54749;47.850;9.002;2024-03-08T11:22:33;95274.78;;;5.79
67966;BMP280;54749;47.850;9.002;2024-03-08T11:25:04;95277.41;;;5.65
67966;BMP280;54749;47.850;9.002;2024-03-08T11:27:37;95272.78;;;5.84
67966;BMP280;54749;47.850;9.002;2024-03-08T11:30:06;95260.28;;;5.94
67966;BMP280;54749;47.850;9.002;2024-03-08T11:32:44;95251.25;;;6.04
67966;BMP280;54749;47.850;9.002;2024-03-08T11:35:19;95244.53;;;6.28
67966;BMP280;54749;47.850;9.002;2024-03-08T11:37:47;95248.09;;;6.36
67966;BMP280;54749;47.850;9.002;2024-03-08T11:40:16;95236.16;;;6.50
67966;BMP280;54749;47.850;9.002;2024-03-08T11:42:47;95245.03;;;6.43
67966;BMP280;54749;47.850;9.002;2024-03-08T11:45:16;95245.75;;;6.22
67966;BMP280;54749;47.850;9.002;2024-03-08T11:47:44;95237.09;;;6.26
67966;BMP280;54749;47.850;9.002;2024-03-08T11:50:17;95239.19;;;6.09
67966;BMP280;54749;47.850;9.002;2024-03-08T11:52:47;95244.31;;;5.60
67966;BMP280;54749;47.850;9.002;2024-03-08T11:55:16;95236.69;;;5.62
67966;BMP280;54749;47.850;9.002;2024-03-08T11:57:48;95240.56;;;5.31
67966;BMP280;54749;47.850;9.002;2024-03-08T12:00:16;95229.09;;;5.51
67966;BMP280;54749;47.850;9.002;2024-03-08T12:03:04;95222.16;;;5.55
67966;BMP280;54749;47.850;9.002;2024-03-08T12:05:32;95209.66;;;5.42
67966;BMP280;54749;47.850;9.002;2024-03-08T12:08:03;95207.56;;;5.49
67966;BMP280;54749;47.850;9.002;2024-03-08T12:10:34;95211.69;;;5.85
67966;BMP280;54749;47.850;9.002;2024-03-08T12:13:02;95203.75;;;5.91
67966;BMP280;54749;47.850;9.002;2024-03-08T12:15:39;95210.91;;;6.07
67966;BMP280;54749;47.850;9.002;2024-03-08T12:18:06;95214.31;;;6.06
67966;BMP280;54749;47.850;9.002;2024-03-08T12:20:35;95223.34;;;5.74
67966;BMP280;54749;47.850;9.002;2024-03-08T12:23:02;95209.91;;;5.97
67966;BMP280;54749;47.850;9.002;2024-03-08T12:25:33;95201.88;;;6.28
67966;BMP280;54749;47.850;9.002;2024-03-08T12:28:13;95211.63;;;6.20
67966;BMP280;54749;47.850;9.002;2024-03-08T12:30:50;95210.41;;;6.25
67966;BMP280;54749;47.850;9.002;2024-03-08T12:33:21;95197.31;;;6.32
67966;BMP280;54749;47.850;9.002;2024-03-08T12:35:51;95189.59;;;6.46
67966;BMP280;54749;47.850;9.002;2024-03-08T12:38:22;95190.31;;;6.59
67966;BMP280;54749;47.850;9.002;2024-03-08T12:41:00;95181.75;;;6.40
67966;BMP280;54749;47.850;9.002;2024-03-08T12:43:28;95186.34;;;6.56
67966;BMP280;54749;47.850;9.002;2024-03-08T12:46:01;95186.34;;;6.56
67966;BMP280;54749;47.850;9.002;2024-03-08T12:48:34;95177.50;;;6.84
67966;BMP280;54749;47.850;9.002;2024-03-08T12:51:01;95183.53;;;6.93
67966;BMP280;54749;47.850;9.002;2024-03-08T12:53:28;95182.13;;;6.67
67966;BMP280;54749;47.850;9.002;2024-03-08T12:55:56;95177.25;;;6.77
67966;BMP280;54749;47.850;9.002;2024-03-08T12:58:23;95170.56;;;6.88
67966;BMP280;54749;47.850;9.002;2024-03-08T13:00:52;95178.78;;;7.00
67966;BMP280;54749;47.850;9.002;2024-03-08T13:03:20;95164.69;;;6.66
67966;BMP280;54749;47.850;9.002;2024-03-08T13:05:48;95171.78;;;6.93
67966;BMP280;54749;47.850;9.002;2024-03-08T13:08:16;95158.91;;;7.08
67966;BMP280;54749;47.850;9.002;2024-03-08T13:10:45;95150.69;;;6.96
67966;BMP280;54749;47.850;9.002;2024-03-08T13:13:12;95159.56;;;6.89
67966;BMP280;54749;47.850;9.002;2024-03-08T13:15:44;95158.00;;;6.99
67966;BMP280;54749;47.850;9.002;2024-03-08T13:18:12;95148.75;;;7.10
67966;BMP280;54749;47.850;9.002;2024-03-08T13:20:40;95131.25;;;7.19
67966;BMP280;54749;47.850;9.002;2024-03-08T13:23:14;95130.47;;;7.29
67966;BMP280;54749;47.850;9.002;2024-03-08T13:25:41;95125.34;;;7.31
67966;BMP280;54749;47.850;9.002;2024-03-08T13:28:09;95128.97;;;7.37
67966;BMP280;54749;47.850;9.002;2024-03-08T13:30:38;95114.34;;;7.32
67966;BMP280;54749;47.850;9.002;2024-03-08T13:33:05;95122.38;;;7.26
67966;BMP280;54749;47.850;9.002;2024-03-08T13:35:34;95118.00;;;7.28
67966;BMP280;54749;47.850;9.002;2024-03-08T13:38:02;95120.97;;;7.33
67966;BMP280;54749;47.850;9.002;2024-03-08T13:40:32;95097.47;;;7.12
67966;BMP280;54749;47.850;9.002;2024-03-08T13:42:59;95098.03;;;7.16
67966;BMP280;54749;47.850;9.002;2024-03-08T13:45:28;95110.28;;;6.99
67966;BMP280;54749;47.850;9.002;2024-03-08T13:47:55;95101.16;;;6.87
67966;BMP280;54749;47.850;9.002;2024-03-08T13:50:23;95103.66;;;6.87
67966;BMP280;54749;47.850;9.002;2024-03-08T13:52:52;95102.19;;;6.95
67966;BMP280;54749;47.850;9.002;2024-03-08T13:55:23;95096.34;;;6.84
67966;BMP280;54749;47.850;9.002;2024-03-08T13:57:54;95093.59;;;6.76
67966;BMP280;54749;47.850;9.002;2024-03-08T14:00:25;95085.84;;;6.58
67966;BMP280;54749;47.850;9.002;2024-03-08T14:02:54;95073.63;;;6.43
67966;BMP280;54749;47.850;9.002;2024-03-08T14:05:22;95058.34;;;6.35
67966;BMP280;54749;47.850;9.002;2024-03-08T14:07:50;95053.88;;;6.38
67966;BMP280;54749;47.850;9.002;2024-03-08T14:10:17;95053.53;;;6.43
67966;BMP280;54749;47.850;9.002;2024-03-08T14:12:48;95040.06;;;6.33
67966;BMP280;54749;47.850;9.002;2024-03-08T14:15:18;95042.38;;;6.36
67966;BMP280;54749;47.850;9.002;2024-03-08T14:17:45;95050.13;;;6.44
67966;BMP280;54749;47.850;9.002;2024-03-08T14:20:19;95039.19;;;6.45
67966;BMP280;54749;47.850;9.002;2024-03-08T14:22:48;95039.97;;;6.34
67966;BMP280;54749;47.850;9.002;2024-03-08T14:25:18;95044.28;;;6.22
67966;BMP280;54749;47.850;9.002;2024-03-08T14:27:46;95034.47;;;6.19
67966;BMP280;54749;47.850;9.002;2024-03-08T14:30:13;95025.31;;;6.07
67966;BMP280;54749;47.850;9.002;2024-03-08T14:32:59;95031.06;;;5.76
67966;BMP280;54749;47.850;9.002;2024-03-08T14:35:30;95031.59;;;5.68